Time;durP1;ratioP1;P1;durP2;ratioP2;P2;SDS_P1;SDS_P2;PMS_P1;PMS_P2;Temp;Humidity;BMP_temperature;BMP_pressure;BME280_temperature;BME280_humidity;BME280_pressure;Samples;Min_cycle;Max_cycle;Signal;HPM_P1;HPM_P2
2022/01/04 00:02:14;;;;;;;;;;;9.00;99.90;;;;;;5094710;28;19969;-48
2022/01/04 00:04:41;;;;;;;;;;;8.80;99.90;;;;;;5094140;28;20389;-48
2022/01/04 00:07:07;;;;;;;;;;;9.00;99.90;;;;;;5087664;28;19997;-50
2022/01/04 00:09:40;;;;;;;;;;;9.00;99.90;;;;;;5094335;28;19924;-49
2022/01/04 00:14:48;;;;;;;;;;;9.10;99.90;;;;;;5096729;22;20488;-52
2022/01/04 00:17:14;;;;;;;;;;;9.20;99.90;;;;;;5072028;28;19950;-52
2022/01/04 00:19:41;;;;;;;;;;;9.30;99.90;;;;;;5070944;28;19925;-52
2022/01/04 00:22:11;;;;;;;;;;;9.20;99.90;;;;;;5069418;28;20375;-52
2022/01/04 00:24:41;;;;;;;;;;;9.10;99.90;;;;;;5071483;28;19983;-52
2022/01/04 00:27:08;;;;;;;;;;;9.00;99.90;;;;;;5071727;28;19928;-52
2022/01/04 00:29:35;;;;;;;;;;;9.00;99.90;;;;;;5070668;28;19924;-53
2022/01/04 00:32:02;;;;;;;;;;;9.00;99.90;;;;;;5071189;28;19994;-53
2022/01/04 00:34:28;;;;;;;;;;;9.00;99.90;;;;;;5071438;28;19932;-53
2022/01/04 00:36:57;;;;;;;;;;;8.90;99.90;;;;;;5071655;28;19970;-52
2022/01/04 00:39:24;;;;;;;;;;;9.00;99.90;;;;;;5065951;28;19939;-52
2022/01/04 00:41:52;;;;;;;;;;;9.00;99.90;;;;;;5070892;28;19940;-52
2022/01/04 00:44:19;;;;;;;;;;;8.80;99.90;;;;;;5070876;28;19928;-52
2022/01/04 00:46:46;;;;;;;;;;;8.80;99.90;;;;;;5071417;28;19924;-53
2022/01/04 00:49:11;;;;;;;;;;;8.80;99.90;;;;;;5070239;28;20015;-53
2022/01/04 00:51:39;;;;;;;;;;;8.70;99.90;;;;;;5071025;28;20023;-52
2022/01/04 00:54:06;;;;;;;;;;;8.70;99.90;;;;;;5070791;28;19990;-53
2022/01/04 00:56:33;;;;;;;;;;;8.80;99.90;;;;;;5067202;28;19990;-53
2022/01/04 00:59:01;;;;;;;;;;;8.80;99.90;;;;;;5069819;28;19924;-52
2022/01/04 01:01:28;;;;;;;;;;;8.80;99.90;;;;;;5070908;28;20345;-52
2022/01/04 01:03:55;;;;;;;;;;;8.80;99.90;;;;;;5070047;28;19932;-52
2022/01/04 01:06:21;;;;;;;;;;;9.00;99.90;;;;;;5070638;28;19932;-52
2022/01/04 01:08:49;;;;;;;;;;;9.10;99.90;;;;;;5070241;28;20023;-53
2022/01/04 01:11:15;;;;;;;;;;;9.30;99.90;;;;;;5070459;28;19970;-52
2022/01/04 01:13:42;;;;;;;;;;;9.40;99.90;;;;;;5069792;28;19932;-52
2022/01/04 01:16:11;;;;;;;;;;;9.40;99.90;;;;;;5054557;28;19924;-53
2022/01/04 01:18:38;;;;;;;;;;;9.30;99.90;;;;;;5065894;28;19978;-52
2022/01/04 01:21:05;;;;;;;;;;;9.30;99.90;;;;;;5070608;28;20058;-52
2022/01/04 01:23:32;;;;;;;;;;;9.30;99.90;;;;;;5070624;28;19957;-52
2022/01/04 01:26:00;;;;;;;;;;;9.30;99.90;;;;;;5070152;28;19925;-55
2022/01/04 01:28:27;;;;;;;;;;;9.30;99.90;;;;;;5065919;28;19932;-52
2022/01/04 01:30:54;;;;;;;;;;;9.30;99.90;;;;;;5070394;28;20001;-52
2022/01/04 01:33:23;;;;;;;;;;;9.30;99.90;;;;;;5070099;28;19981;-52
2022/01/04 01:35:50;;;;;;;;;;;9.30;99.90;;;;;;5069680;28;20056;-52
2022/01/04 01:38:19;;;;;;;;;;;9.30;99.90;;;;;;5069423;28;19925;-51
2022/01/04 01:40:46;;;;;;;;;;;9.30;99.90;;;;;;5069470;28;20041;-52
2022/01/04 01:43:13;;;;;;;;;;;9.20;99.90;;;;;;5069588;28;19932;-52
2022/01/04 01:45:40;;;;;;;;;;;9.20;99.90;;;;;;5058167;28;20447;-53
2022/01/04 01:48:07;;;;;;;;;;;9.20;99.90;;;;;;5068780;28;20053;-53
2022/01/04 01:50:35;;;;;;;;;;;9.10;99.90;;;;;;5070132;28;19990;-52
2022/01/04 01:53:03;;;;;;;;;;;9.00;99.90;;;;;;5069914;28;19928;-52
2022/01/04 01:55:30;;;;;;;;;;;8.90;99.90;;;;;;5069846;28;19924;-52
2022/01/04 01:57:56;;;;;;;;;;;9.10;99.90;;;;;;5069130;28;19933;-52
2022/01/04 02:00:25;;;;;;;;;;;9.10;99.90;;;;;;5068436;28;19983;-52
2022/01/04 02:02:51;;;;;;;;;;;9.10;99.90;;;;;;5065969;28;19974;-51
2022/01/04 02:05:18;;;;;;;;;;;9.10;99.90;;;;;;5068339;28;19928;-53
2022/01/04 02:07:46;;;;;;;;;;;9.10;99.90;;;;;;5069566;28;19948;-53
2022/01/04 02:10:13;;;;;;;;;;;9.20;99.90;;;;;;5069512;28;19978;-52
2022/01/04 02:12:41;;;;;;;;;;;9.10;99.90;;;;;;5069225;28;20386;-52
2022/01/04 02:15:09;;;;;;;;;;;9.20;99.90;;;;;;5069147;28;19982;-52
2022/01/04 02:17:36;;;;;;;;;;;9.10;99.90;;;;;;5068524;28;20340;-51
2022/01/04 02:20:05;;;;;;;;;;;9.00;99.90;;;;;;5069103;28;19974;-52
2022/01/04 02:22:31;;;;;;;;;;;9.10;99.90;;;;;;5069666;28;19932;-52
2022/01/04 02:24:58;;;;;;;;;;;9.20;99.90;;;;;;5069033;28;19936;-53
2022/01/04 02:27:25;;;;;;;;;;;9.10;99.90;;;;;;5068240;28;19970;-52
2022/01/04 02:29:52;;;;;;;;;;;9.00;99.90;;;;;;5068734;28;19928;-52
2022/01/04 02:32:19;;;;;;;;;;;8.90;99.90;;;;;;5069198;28;20069;-52
2022/01/04 02:34:47;;;;;;;;;;;8.80;99.90;;;;;;5067711;28;20407;-52
2022/01/04 02:37:18;;;;;;;;;;;8.80;99.90;;;;;;5069295;28;20380;-52
2022/01/04 02:39:45;;;;;;;;;;;8.80;99.90;;;;;;5068761;28;19936;-53
2022/01/04 02:42:11;;;;;;;;;;;8.80;99.90;;;;;;5068497;28;19932;-53
2022/01/04 02:44:38;;;;;;;;;;;8.80;99.90;;;;;;5068936;28;19924;-52
2022/01/04 02:47:05;;;;;;;;;;;8.70;99.90;;;;;;5067709;28;20007;-52
2022/01/04 02:49:32;;;;;;;;;;;8.60;99.90;;;;;;5069284;28;20066;-52
2022/01/04 02:51:59;;;;;;;;;;;8.60;99.90;;;;;;5068764;28;19936;-52
2022/01/04 02:54:27;;;;;;;;;;;8.70;99.90;;;;;;5072116;28;19978;-52
2022/01/04 02:56:53;;;;;;;;;;;8.70;99.90;;;;;;5071599;28;19925;-52
2022/01/04 02:59:20;;;;;;;;;;;8.70;99.90;;;;;;5072760;28;19944;-52
2022/01/04 03:01:47;;;;;;;;;;;8.70;99.90;;;;;;5072727;28;20001;-52
2022/01/04 03:04:14;;;;;;;;;;;8.80;99.90;;;;;;5072750;28;20606;-53
2022/01/04 03:06:40;;;;;;;;;;;9.00;99.90;;;;;;5072031;28;19928;-52
2022/01/04 03:09:07;;;;;;;;;;;9.10;99.90;;;;;;5063942;28;19924;-52
2022/01/04 03:11:35;;;;;;;;;;;9.20;99.90;;;;;;5072691;28;19952;-52
2022/01/04 03:14:02;;;;;;;;;;;9.00;99.90;;;;;;5073090;28;20070;-53
2022/01/04 03:16:29;;;;;;;;;;;9.10;99.90;;;;;;5072219;28;19928;-52
2022/01/04 03:19:06;;;;;;;;;;;9.00;99.90;;;;;;5072133;28;19928;-52
2022/01/04 03:21:33;;;;;;;;;;;9.00;99.90;;;;;;5072697;28;20011;-51
2022/01/04 03:24:00;;;;;;;;;;;9.00;99.90;;;;;;5072135;28;19924;-52
2022/01/04 03:26:27;;;;;;;;;;;8.90;99.90;;;;;;5071610;28;19982;-52
2022/01/04 03:28:55;;;;;;;;;;;8.90;99.90;;;;;;5072137;28;19928;-51
2022/01/04 03:31:22;;;;;;;;;;;8.80;99.90;;;;;;5072457;28;19978;-52
2022/01/04 03:33:48;;;;;;;;;;;8.70;99.90;;;;;;5072476;28;20512;-52
2022/01/04 03:36:15;;;;;;;;;;;8.70;99.90;;;;;;5072696;28;20351;-52
2022/01/04 03:38:42;;;;;;;;;;;8.60;99.90;;;;;;5072188;28;20415;-52
2022/01/04 03:41:10;;;;;;;;;;;8.70;99.90;;;;;;5072379;28;19933;-52
2022/01/04 03:43:38;;;;;;;;;;;8.80;99.90;;;;;;5071373;28;19929;-52
2022/01/04 03:46:07;;;;;;;;;;;8.80;99.90;;;;;;5062676;28;19924;-52
2022/01/04 03:48:34;;;;;;;;;;;8.70;99.90;;;;;;5072091;28;19924;-52
2022/01/04 03:51:01;;;;;;;;;;;8.60;99.90;;;;;;5072404;28;19978;-52
2022/01/04 03:53:27;;;;;;;;;;;8.60;99.90;;;;;;5072041;28;19986;-53
2022/01/04 03:55:54;;;;;;;;;;;8.60;99.90;;;;;;5071465;28;19928;-52
2022/01/04 03:58:21;;;;;;;;;;;8.70;99.90;;;;;;5071691;28;20451;-52
2022/01/04 04:00:47;;;;;;;;;;;8.60;99.90;;;;;;5071836;28;19990;-52
2022/01/04 04:03:16;;;;;;;;;;;8.60;99.90;;;;;;5071626;28;19928;-53
2022/01/04 04:05:42;;;;;;;;;;;8.70;99.90;;;;;;5071171;28;19928;-52
2022/01/04 04:08:09;;;;;;;;;;;8.80;99.90;;;;;;5071664;28;19924;-53
2022/01/04 04:10:36;;;;;;;;;;;8.90;99.90;;;;;;5071384;28;19925;-52
2022/01/04 04:13:03;;;;;;;;;;;9.00;99.90;;;;;;5072026;28;19932;-52
2022/01/04 04:15:30;;;;;;;;;;;8.90;99.90;;;;;;5071891;28;19924;-53
2022/01/04 04:17:56;;;;;;;;;;;9.00;99.90;;;;;;5071619;28;19924;-52
2022/01/04 04:20:25;;;;;;;;;;;9.00;99.90;;;;;;5071792;28;20366;-52
2022/01/04 04:22:52;;;;;;;;;;;9.00;99.90;;;;;;5071296;28;19924;-51
2022/01/04 04:25:19;;;;;;;;;;;8.90;99.90;;;;;;5071722;28;19986;-52
2022/01/04 04:27:45;;;;;;;;;;;8.90;99.90;;;;;;5071312;28;20015;-52
2022/01/04 04:30:12;;;;;;;;;;;8.90;99.90;;;;;;5071899;28;20032;-52
2022/01/04 04:32:39;;;;;;;;;;;8.90;99.90;;;;;;5071715;28;19924;-52
2022/01/04 04:35:06;;;;;;;;;;;8.90;99.90;;;;;;5070629;28;19925;-52
2022/01/04 04:37:34;;;;;;;;;;;8.90;99.90;;;;;;5071434;28;19929;-51
2022/01/04 04:40:01;;;;;;;;;;;9.00;99.90;;;;;;5070126;28;19978;-52
2022/01/04 04:42:28;;;;;;;;;;;9.00;99.90;;;;;;5070511;28;19970;-52
2022/01/04 04:44:54;;;;;;;;;;;9.00;99.90;;;;;;5071014;28;19962;-51
2022/01/04 04:47:21;;;;;;;;;;;9.00;99.90;;;;;;5070345;28;20408;-52
2022/01/04 04:49:48;;;;;;;;;;;9.00;99.90;;;;;;5070975;28;19928;-52
2022/01/04 04:52:15;;;;;;;;;;;9.00;99.90;;;;;;5071370;28;19943;-52
2022/01/04 04:54:43;;;;;;;;;;;9.10;99.90;;;;;;5070997;28;19924;-51
2022/01/04 04:57:09;;;;;;;;;;;9.10;99.90;;;;;;5066075;28;19970;-53
2022/01/04 04:59:36;;;;;;;;;;;9.20;99.90;;;;;;5070841;28;20320;-52
2022/01/04 05:02:03;;;;;;;;;;;9.20;99.90;;;;;;5060175;28;19992;-52
2022/01/04 05:04:30;;;;;;;;;;;9.20;99.90;;;;;;5070739;28;20309;-52
2022/01/04 05:06:56;;;;;;;;;;;9.30;99.90;;;;;;5070582;28;20346;-52
2022/01/04 05:09:23;;;;;;;;;;;9.20;99.90;;;;;;5070529;28;19928;-52
2022/01/04 05:11:51;;;;;;;;;;;9.20;99.90;;;;;;5070806;28;19934;-52
2022/01/04 05:14:18;;;;;;;;;;;9.30;99.90;;;;;;5070906;28;19993;-52
2022/01/04 05:16:45;;;;;;;;;;;9.30;99.90;;;;;;5070154;28;19925;-52
2022/01/04 05:19:12;;;;;;;;;;;9.30;99.90;;;;;;5069727;28;20290;-52
2022/01/04 05:21:38;;;;;;;;;;;9.50;99.90;;;;;;5070329;28;19932;-52
2022/01/04 05:24:06;;;;;;;;;;;9.50;99.90;;;;;;5070130;28;19924;-52
2022/01/04 05:26:33;;;;;;;;;;;9.60;99.90;;;;;;5070231;28;19929;-52
2022/01/04 05:29:01;;;;;;;;;;;9.60;99.90;;;;;;5070472;28;19924;-52
2022/01/04 05:31:28;;;;;;;;;;;9.60;99.90;;;;;;5070623;28;20297;-52
2022/01/04 05:33:55;;;;;;;;;;;9.60;99.90;;;;;;5070001;28;20346;-52
2022/01/04 05:36:22;;;;;;;;;;;9.70;99.90;;;;;;5069680;28;19932;-52
2022/01/04 05:38:48;;;;;;;;;;;9.60;99.90;;;;;;5069884;28;20375;-52
2022/01/04 05:41:15;;;;;;;;;;;9.60;99.90;;;;;;5069955;28;20332;-52
2022/01/04 05:43:42;;;;;;;;;;;9.60;99.90;;;;;;5069771;28;19932;-52
2022/01/04 05:46:10;;;;;;;;;;;9.60;99.90;;;;;;5065876;28;20302;-53
2022/01/04 05:48:37;;;;;;;;;;;9.50;99.90;;;;;;5067091;28;19925;-52
2022/01/04 05:51:04;;;;;;;;;;;9.50;99.90;;;;;;5069995;28;19982;-51
2022/01/04 05:53:31;;;;;;;;;;;9.50;99.90;;;;;;5069607;28;20008;-52
2022/01/04 05:55:57;;;;;;;;;;;9.60;99.90;;;;;;5069751;28;20310;-52
2022/01/04 05:58:24;;;;;;;;;;;9.50;99.90;;;;;;5069478;28;19954;-51
2022/01/04 06:00:51;;;;;;;;;;;9.40;99.90;;;;;;5069413;28;19924;-52
2022/01/04 06:03:19;;;;;;;;;;;9.40;99.90;;;;;;5069952;28;19932;-52
2022/01/04 06:05:46;;;;;;;;;;;9.50;99.90;;;;;;5070295;28;19970;-52
2022/01/04 06:08:12;;;;;;;;;;;9.30;99.90;;;;;;5069332;28;19925;-52
2022/01/04 06:10:42;;;;;;;;;;;9.10;99.90;;;;;;5068919;28;19924;-52
2022/01/04 06:15:53;;;;;;;;;;;9.00;99.90;;;;;;5069477;28;19953;-52
2022/01/04 06:18:21;;;;;;;;;;;8.90;99.90;;;;;;5069786;28;19924;-52
2022/01/04 06:20:50;;;;;;;;;;;8.90;99.90;;;;;;5069851;28;20376;-51
2022/01/04 06:23:16;;;;;;;;;;;8.80;99.90;;;;;;5069856;28;20379;-52
2022/01/04 06:31:49;;;;;;;;;;;8.80;99.90;;;;;;5117187;22;20467;-50
2022/01/04 06:34:17;;;;;;;;;;;8.60;99.90;;;;;;5104334;28;20385;-50
2022/01/04 06:36:44;;;;;;;;;;;8.30;99.90;;;;;;5097616;28;19927;-50
2022/01/04 06:39:11;;;;;;;;;;;8.10;99.90;;;;;;5111790;28;19984;-49
2022/01/04 06:41:37;;;;;;;;;;;8.10;99.90;;;;;;5110869;28;19923;-50
2022/01/04 06:44:04;;;;;;;;;;;8.10;99.90;;;;;;5092743;28;20368;-50
2022/01/04 06:46:31;;;;;;;;;;;8.20;99.90;;;;;;5091755;28;19924;-50
2022/01/04 06:48:58;;;;;;;;;;;8.20;99.90;;;;;;5092542;28;21159;-51
2022/01/04 06:51:26;;;;;;;;;;;8.20;99.90;;;;;;5091056;28;19977;-51
2022/01/04 06:53:53;;;;;;;;;;;8.00;99.90;;;;;;5095488;28;19924;-51
2022/01/04 06:56:19;;;;;;;;;;;8.00;99.90;;;;;;5089739;28;19969;-51
2022/01/04 06:58:46;;;;;;;;;;;7.90;99.90;;;;;;5077082;28;19923;-51
2022/01/04 07:01:13;;;;;;;;;;;7.80;99.90;;;;;;5110358;28;19924;-51
2022/01/04 07:03:40;;;;;;;;;;;7.80;99.90;;;;;;5101324;28;19924;-50
2022/01/04 07:06:07;;;;;;;;;;;7.70;99.90;;;;;;5112205;28;19924;-51
2022/01/04 07:08:35;;;;;;;;;;;7.70;99.90;;;;;;5109342;28;19988;-51
2022/01/04 07:11:02;;;;;;;;;;;7.60;99.90;;;;;;5093242;28;19981;-51
2022/01/04 07:13:29;;;;;;;;;;;7.60;99.90;;;;;;5105038;28;19928;-51
2022/01/04 07:15:55;;;;;;;;;;;7.50;99.90;;;;;;5107795;28;19935;-50
2022/01/04 07:18:22;;;;;;;;;;;7.50;99.90;;;;;;5087970;28;20305;-50
2022/01/04 07:20:49;;;;;;;;;;;7.50;99.90;;;;;;5097875;28;20393;-50
2022/01/04 07:23:16;;;;;;;;;;;7.60;99.90;;;;;;5101354;28;19924;-50
2022/01/04 07:25:44;;;;;;;;;;;7.60;99.90;;;;;;5091409;28;19924;-50
2022/01/04 07:28:10;;;;;;;;;;;7.70;99.90;;;;;;5092381;28;19977;-50
2022/01/04 07:30:37;;;;;;;;;;;7.90;99.90;;;;;;5090694;28;19957;-49
2022/01/04 07:33:04;;;;;;;;;;;8.20;99.90;;;;;;5102440;28;19989;-50
2022/01/04 07:35:30;;;;;;;;;;;8.50;99.90;;;;;;5107460;28;20458;-50
2022/01/04 07:37:57;;;;;;;;;;;8.80;99.90;;;;;;5091461;28;19924;-50
2022/01/04 07:40:24;;;;;;;;;;;8.90;99.90;;;;;;5104419;28;20017;-50
2022/01/04 07:42:53;;;;;;;;;;;8.90;99.90;;;;;;5108301;28;19977;-50
2022/01/04 07:45:20;;;;;;;;;;;9.00;99.90;;;;;;5101687;28;20409;-48
2022/01/04 07:47:47;;;;;;;;;;;9.20;99.90;;;;;;5095801;28;19924;-50
2022/01/04 07:50:13;;;;;;;;;;;9.10;99.90;;;;;;5094480;28;19969;-50
2022/01/04 07:52:40;;;;;;;;;;;9.10;99.90;;;;;;5101722;28;19924;-50
2022/01/04 07:55:07;;;;;;;;;;;9.20;99.90;;;;;;5114576;28;20351;-49
2022/01/04 07:57:35;;;;;;;;;;;9.20;99.90;;;;;;5108177;28;19928;-50
2022/01/04 08:00:03;;;;;;;;;;;9.20;99.90;;;;;;5080179;28;19985;-51
2022/01/04 08:02:30;;;;;;;;;;;9.30;99.90;;;;;;5085629;28;20374;-49
2022/01/04 08:04:57;;;;;;;;;;;9.50;99.90;;;;;;5094838;28;19924;-51
2022/01/04 08:07:23;;;;;;;;;;;9.70;99.90;;;;;;5094848;28;19924;-50
2022/01/04 08:09:51;;;;;;;;;;;9.70;99.90;;;;;;5106716;28;20381;-50
2022/01/04 08:12:18;;;;;;;;;;;9.60;99.90;;;;;;5098027;28;19923;-50
2022/01/04 08:14:45;;;;;;;;;;;9.60;99.90;;;;;;5106738;28;20397;-50
2022/01/04 08:17:13;;;;;;;;;;;9.60;99.90;;;;;;5094633;28;20458;-50
2022/01/04 08:19:40;;;;;;;;;;;9.70;99.90;;;;;;5094269;28;19924;-50
2022/01/04 08:22:07;;;;;;;;;;;9.70;99.90;;;;;;5096307;28;20050;-49
2022/01/04 08:24:34;;;;;;;;;;;9.70;99.90;;;;;;5107468;28;20310;-49
2022/01/04 08:27:01;;;;;;;;;;;9.80;99.90;;;;;;5094025;28;19924;-49
2022/01/04 08:29:29;;;;;;;;;;;9.80;99.90;;;;;;5094058;28;19946;-50
2022/01/04 08:31:56;;;;;;;;;;;9.80;99.90;;;;;;5094013;28;19924;-50
2022/01/04 08:34:24;;;;;;;;;;;9.90;99.90;;;;;;5114402;28;19976;-50
2022/01/04 08:36:50;;;;;;;;;;;9.80;99.90;;;;;;5114351;28;19924;-50
2022/01/04 08:39:17;;;;;;;;;;;9.90;99.90;;;;;;5113877;28;19923;-50
2022/01/04 08:41:45;;;;;;;;;;;9.80;99.90;;;;;;5114268;28;19985;-49
2022/01/04 08:44:12;;;;;;;;;;;9.80;99.90;;;;;;5094700;28;19928;-50
2022/01/04 08:46:39;;;;;;;;;;;9.90;99.90;;;;;;5092090;28;20377;-49
2022/01/04 08:49:07;;;;;;;;;;;10.20;99.90;;;;;;5092673;28;19924;-50
2022/01/04 08:51:35;;;;;;;;;;;10.50;99.90;;;;;;5092456;28;19924;-50
2022/01/04 08:54:02;;;;;;;;;;;10.90;99.90;;;;;;5091066;28;20378;-51
2022/01/04 08:56:29;;;;;;;;;;;11.10;99.90;;;;;;5092796;28;19924;-50
2022/01/04 08:58:56;;;;;;;;;;;11.10;99.90;;;;;;5092986;28;19927;-50
2022/01/04 09:01:23;;;;;;;;;;;11.00;99.90;;;;;;5085004;28;19977;-50
2022/01/04 09:03:50;;;;;;;;;;;10.90;99.90;;;;;;5091531;28;19924;-50
2022/01/04 09:06:16;;;;;;;;;;;11.00;99.90;;;;;;5092264;28;20288;-51
2022/01/04 09:08:45;;;;;;;;;;;11.10;99.90;;;;;;5092032;28;19924;-50
2022/01/04 09:11:12;;;;;;;;;;;11.10;99.90;;;;;;5093078;28;20313;-50
2022/01/04 09:13:42;;;;;;;;;;;11.20;99.90;;;;;;5089216;28;19924;-51
2022/01/04 09:18:54;;;;;;;;;;;11.40;99.90;;;;;;5091475;28;19944;-49
2022/01/04 09:21:23;;;;;;;;;;;11.50;99.90;;;;;;5087312;28;20038;-50
2022/01/04 09:23:53;;;;;;;;;;;11.60;99.90;;;;;;5091411;28;20011;-53
2022/01/04 09:26:20;;;;;;;;;;;11.60;99.90;;;;;;5091904;28;19924;-52
2022/01/04 09:28:47;;;;;;;;;;;11.70;99.90;;;;;;5091825;28;20001;-51
2022/01/04 09:31:14;;;;;;;;;;;11.80;99.90;;;;;;5091710;28;19932;-50
2022/01/04 09:33:41;;;;;;;;;;;11.80;99.90;;;;;;5088556;28;19928;-49
2022/01/04 09:36:08;;;;;;;;;;;11.90;99.90;;;;;;5092107;28;19924;-50
2022/01/04 09:38:35;;;;;;;;;;;12.00;99.90;;;;;;5086998;28;20011;-50
2022/01/04 09:41:04;;;;;;;;;;;11.90;99.90;;;;;;5091222;28;20355;-50
2022/01/04 09:43:31;;;;;;;;;;;12.00;99.90;;;;;;5086762;28;19928;-50
2022/01/04 09:45:57;;;;;;;;;;;12.10;99.90;;;;;;5091094;28;20446;-50
2022/01/04 09:48:24;;;;;;;;;;;12.30;99.90;;;;;;5091321;28;19928;-49
2022/01/04 09:50:51;;;;;;;;;;;12.40;99.90;;;;;;5088654;28;19990;-50
2022/01/04 09:53:20;;;;;;;;;;;12.40;99.90;;;;;;5091270;28;19981;-50
2022/01/04 09:55:48;;;;;;;;;;;12.40;99.90;;;;;;5090599;28;19932;-50
2022/01/04 09:58:17;;;;;;;;;;;12.40;99.90;;;;;;5090210;28;19985;-50
2022/01/04 10:00:44;;;;;;;;;;;12.50;99.90;;;;;;5089876;28;19936;-51
2022/01/04 10:03:13;;;;;;;;;;;12.50;99.90;;;;;;5090697;28;20386;-49
2022/01/04 10:05:40;;;;;;;;;;;12.50;99.90;;;;;;5090680;28;19931;-50
2022/01/04 10:08:08;;;;;;;;;;;12.50;99.90;;;;;;5090933;28;20021;-50
2022/01/04 10:10:35;;;;;;;;;;;12.60;99.90;;;;;;5089925;28;19977;-50
2022/01/04 10:13:03;;;;;;;;;;;12.70;99.90;;;;;;5090132;28;19977;-50
2022/01/04 10:15:33;;;;;;;;;;;12.80;99.90;;;;;;5091533;28;20397;-50
2022/01/04 10:18:02;;;;;;;;;;;12.90;99.90;;;;;;5091185;28;19939;-50
2022/01/04 10:20:29;;;;;;;;;;;12.90;99.90;;;;;;5091079;28;20381;-49
2022/01/04 10:23:09;;;;;;;;;;;12.90;99.90;;;;;;5090516;28;20320;-50
2022/01/04 10:25:35;;;;;;;;;;;12.90;99.90;;;;;;5090812;28;19928;-49
2022/01/04 10:28:02;;;;;;;;;;;13.10;99.90;;;;;;5091209;28;19924;-50
2022/01/04 10:30:30;;;;;;;;;;;13.10;99.90;;;;;;5090785;28;19936;-49
2022/01/04 10:32:59;;;;;;;;;;;13.30;99.90;;;;;;5091551;28;19932;-49
2022/01/04 10:35:28;;;;;;;;;;;13.30;99.90;;;;;;5086189;28;19928;-50
2022/01/04 10:37:55;;;;;;;;;;;13.20;99.90;;;;;;5090814;28;19978;-49
2022/01/04 10:40:23;;;;;;;;;;;13.20;99.90;;;;;;5090542;28;19949;-49
2022/01/04 10:42:52;;;;;;;;;;;13.30;99.90;;;;;;5090875;28;19924;-50
2022/01/04 10:45:27;;;;;;;;;;;13.30;99.90;;;;;;5094835;28;19928;-50
2022/01/04 10:47:54;;;;;;;;;;;13.40;99.90;;;;;;5091783;28;19924;-50
2022/01/04 10:50:35;;;;;;;;;;;13.30;99.90;;;;;;5088700;28;19985;-51
2022/01/04 10:53:03;;;;;;;;;;;13.50;99.90;;;;;;5091011;28;19949;-49
2022/01/04 10:55:33;;;;;;;;;;;13.50;99.90;;;;;;5091209;28;20388;-50
2022/01/04 10:58:00;;;;;;;;;;;13.60;99.90;;;;;;5090952;28;19970;-50
2022/01/04 11:00:28;;;;;;;;;;;13.60;99.90;;;;;;5089270;28;20412;-49
2022/01/04 11:02:55;;;;;;;;;;;13.60;99.90;;;;;;5090490;28;19924;-49
2022/01/04 11:05:22;;;;;;;;;;;13.70;99.90;;;;;;5089837;28;19928;-50
2022/01/04 11:07:59;;;;;;;;;;;13.70;99.90;;;;;;5089656;28;19993;-47
2022/01/04 11:10:27;;;;;;;;;;;13.80;99.90;;;;;;5081012;28;19985;-49
2022/01/04 11:12:57;;;;;;;;;;;14.00;99.90;;;;;;5086432;28;20030;-49
2022/01/04 11:15:24;;;;;;;;;;;14.20;99.90;;;;;;5086844;28;20359;-48
2022/01/04 11:17:50;;;;;;;;;;;14.30;99.90;;;;;;5093586;28;19924;-48
2022/01/04 11:20:18;;;;;;;;;;;14.30;99.90;;;;;;5094511;28;19978;-50
2022/01/04 11:22:46;;;;;;;;;;;14.30;99.90;;;;;;5094310;28;20407;-49
2022/01/04 11:25:15;;;;;;;;;;;14.20;99.90;;;;;;5086560;28;19969;-49
2022/01/04 11:27:42;;;;;;;;;;;14.30;99.90;;;;;;5090215;28;20381;-49
2022/01/04 11:30:11;;;;;;;;;;;14.30;99.90;;;;;;5092721;28;20397;-49
2022/01/04 11:32:40;;;;;;;;;;;14.30;99.90;;;;;;5090580;28;19998;-50
2022/01/04 11:35:12;;;;;;;;;;;14.40;99.90;;;;;;5088224;28;20397;-48
2022/01/04 11:37:41;;;;;;;;;;;14.40;99.90;;;;;;5094018;28;20385;-48
2022/01/04 11:40:29;;;;;;;;;;;14.50;99.90;;;;;;5093976;28;19967;-50
2022/01/04 11:42:56;;;;;;;;;;;14.60;99.90;;;;;;5074738;28;19986;-50
2022/01/04 11:45:40;;;;;;;;;;;14.70;99.90;;;;;;5093432;28;19924;-49
2022/01/04 11:48:21;;;;;;;;;;;14.80;99.90;;;;;;5094231;28;19928;-49
2022/01/04 11:50:48;;;;;;;;;;;14.80;99.90;;;;;;5093534;28;20398;-50
2022/01/04 11:53:15;;;;;;;;;;;14.80;99.90;;;;;;5094190;28;20402;-49
2022/01/04 11:55:48;;;;;;;;;;;14.90;99.90;;;;;;5093830;28;20005;-50
2022/01/04 11:58:17;;;;;;;;;;;14.90;99.90;;;;;;5086079;28;19969;-49
2022/01/04 12:00:45;;;;;;;;;;;14.90;99.90;;;;;;5093410;28;19930;-48
2022/01/04 12:03:13;;;;;;;;;;;14.90;99.90;;;;;;5089155;28;20297;-49
2022/01/04 12:05:41;;;;;;;;;;;15.00;99.90;;;;;;5093175;28;20416;-50
2022/01/04 12:08:18;;;;;;;;;;;15.20;99.90;;;;;;5098214;28;19981;-49
2022/01/04 12:10:46;;;;;;;;;;;15.30;99.90;;;;;;5090340;28;19924;-49
2022/01/04 12:13:16;;;;;;;;;;;15.60;99.90;;;;;;5092170;28;19939;-49
2022/01/04 12:15:47;;;;;;;;;;;15.80;99.90;;;;;;5092710;28;19974;-50
2022/01/04 12:18:28;;;;;;;;;;;15.90;99.90;;;;;;5085653;28;19935;-48
2022/01/04 12:20:56;;;;;;;;;;;15.90;99.90;;;;;;5085287;28;20019;-48
2022/01/04 12:23:38;;;;;;;;;;;16.00;99.90;;;;;;5087167;28;20393;-50
2022/01/04 12:26:21;;;;;;;;;;;15.90;99.90;;;;;;5090252;28;19923;-50
2022/01/04 12:29:03;;;;;;;;;;;15.90;99.90;;;;;;5091778;28;19928;-49
2022/01/04 12:31:30;;;;;;;;;;;15.90;99.90;;;;;;5100558;22;20433;-50
2022/01/04 12:33:58;;;;;;;;;;;15.80;99.90;;;;;;5072143;28;19947;-53
2022/01/04 12:36:25;;;;;;;;;;;15.70;99.90;;;;;;5075903;28;19925;-52
2022/01/04 12:38:52;;;;;;;;;;;15.70;99.90;;;;;;5075975;28;20001;-52
2022/01/04 12:41:21;;;;;;;;;;;15.80;99.90;;;;;;5077473;28;19928;-52
2022/01/04 12:43:49;;;;;;;;;;;15.80;99.90;;;;;;5075764;28;19931;-52
2022/01/04 12:46:25;;;;;;;;;;;15.70;99.90;;;;;;5077368;28;19925;-52
2022/01/04 12:48:53;;;;;;;;;;;15.70;99.90;;;;;;5078782;28;19924;-53
2022/01/04 12:51:24;;;;;;;;;;;15.70;99.90;;;;;;5074285;28;20061;-52
2022/01/04 12:53:51;;;;;;;;;;;15.70;99.90;;;;;;5073222;28;20018;-52
2022/01/04 12:56:18;;;;;;;;;;;15.60;99.90;;;;;;5073231;28;20334;-53
2022/01/04 12:58:46;;;;;;;;;;;15.80;99.90;;;;;;5083624;28;20356;-52
2022/01/04 13:01:13;;;;;;;;;;;15.80;99.90;;;;;;5071407;28;19985;-53
2022/01/04 13:03:40;;;;;;;;;;;15.80;99.90;;;;;;5072092;28;19936;-53
2022/01/04 13:06:07;;;;;;;;;;;15.70;99.90;;;;;;5078643;28;19932;-52
2022/01/04 13:08:35;;;;;;;;;;;15.60;99.90;;;;;;5080833;28;19932;-53
2022/01/04 13:11:02;;;;;;;;;;;15.60;99.90;;;;;;5079075;28;19939;-52
2022/01/04 13:13:30;;;;;;;;;;;15.60;99.90;;;;;;5070472;28;19925;-52
2022/01/04 13:16:18;;;;;;;;;;;15.50;99.90;;;;;;5073628;28;20390;-52
2022/01/04 13:18:45;;;;;;;;;;;15.50;99.90;;;;;;5078818;28;19924;-53
2022/01/04 13:21:12;;;;;;;;;;;15.60;99.90;;;;;;5070899;28;20352;-52
2022/01/04 13:23:38;;;;;;;;;;;15.60;99.90;;;;;;5071677;28;20624;-52
2022/01/04 13:26:05;;;;;;;;;;;15.70;99.90;;;;;;5070772;28;19924;-52
2022/01/04 13:28:33;;;;;;;;;;;15.80;99.90;;;;;;5065692;28;19933;-52
2022/01/04 13:31:01;;;;;;;;;;;16.00;99.90;;;;;;5070822;28;19950;-52
2022/01/04 13:33:27;;;;;;;;;;;16.10;99.90;;;;;;5065495;28;19928;-52
2022/01/04 13:35:56;;;;;;;;;;;16.10;99.90;;;;;;5067266;28;20073;-52
2022/01/04 13:38:23;;;;;;;;;;;16.20;99.90;;;;;;5070896;28;19930;-52
2022/01/04 13:40:51;;;;;;;;;;;16.30;99.90;;;;;;5062875;28;19936;-52
2022/01/04 13:43:18;;;;;;;;;;;16.40;99.90;;;;;;5062305;28;19924;-53
2022/01/04 13:45:46;;;;;;;;;;;16.30;99.90;;;;;;5064222;28;19929;-54
2022/01/04 13:48:15;;;;;;;;;;;16.30;99.90;;;;;;5075269;28;20374;-53
2022/01/04 13:50:43;;;;;;;;;;;16.30;99.90;;;;;;5074864;28;19928;-54
2022/01/04 13:53:11;;;;;;;;;;;16.40;99.90;;;;;;5088406;28;19924;-54
2022/01/04 13:55:49;;;;;;;;;;;16.40;99.90;;;;;;5071601;28;19924;-53
2022/01/04 13:58:35;;;;;;;;;;;16.40;99.90;;;;;;5061469;28;19974;-53
2022/01/04 14:01:10;;;;;;;;;;;16.30;99.90;;;;;;5071020;28;20073;-53
2022/01/04 14:03:40;;;;;;;;;;;16.40;99.90;;;;;;5064429;28;19991;-53
2022/01/04 14:06:06;;;;;;;;;;;16.40;99.90;;;;;;5071250;28;19972;-53
2022/01/04 14:08:49;;;;;;;;;;;16.30;99.90;;;;;;5071115;28;19970;-53
2022/01/04 14:11:22;;;;;;;;;;;16.20;99.90;;;;;;5071527;28;19989;-53
2022/01/04 14:13:50;;;;;;;;;;;16.40;99.90;;;;;;5078909;28;19925;-53
2022/01/04 14:16:17;;;;;;;;;;;16.30;99.90;;;;;;5071406;28;19974;-53
2022/01/04 14:19:05;;;;;;;;;;;16.30;99.90;;;;;;5068192;28;19929;-54
2022/01/04 14:21:33;;;;;;;;;;;16.30;99.90;;;;;;5062066;28;19936;-53
2022/01/04 14:24:00;;;;;;;;;;;16.50;99.90;;;;;;5071886;28;19967;-53
2022/01/04 14:26:27;;;;;;;;;;;16.50;99.90;;;;;;5066673;28;19936;-52
2022/01/04 14:28:54;;;;;;;;;;;16.40;99.90;;;;;;5070693;28;19940;-53
2022/01/04 14:31:21;;;;;;;;;;;16.40;99.90;;;;;;5068296;28;19990;-54
2022/01/04 14:33:49;;;;;;;;;;;16.20;99.90;;;;;;5071291;28;20018;-53
2022/01/04 14:36:17;;;;;;;;;;;16.20;99.90;;;;;;5070040;28;19924;-53
2022/01/04 14:38:45;;;;;;;;;;;16.00;99.90;;;;;;5072532;28;20360;-53
2022/01/04 14:41:12;;;;;;;;;;;15.90;99.90;;;;;;5075322;28;19931;-54
2022/01/04 14:43:39;;;;;;;;;;;15.80;99.90;;;;;;5070339;28;20340;-53